Time;durP1;ratioP1;P1;durP2;ratioP2;P2;SDS_P1;SDS_P2;PMS_P1;PMS_P2;Temp;Humidity;BMP_temperature;BMP_pressure;BME280_temperature;BME280_humidity;BME280_pressure;Samples;Min_cycle;Max_cycle;Signal;HPM_P1;HPM_P2
2022/10/16 00:01:15;;;;;;;0.75;0.70;;;20.10;63.10;;;;;;5086109;28;46382;-73
2022/10/16 00:03:42;;;;;;;0.60;0.60;;;20.10;63.10;;;;;;5086251;28;45319;-73
2022/10/16 00:06:10;;;;;;;0.70;0.70;;;20.00;63.10;;;;;;5086201;28;45355;-72
2022/10/16 00:08:37;;;;;;;1.95;0.90;;;20.00;63.10;;;;;;5086668;28;45364;-73
2022/10/16 00:11:05;;;;;;;0.90;0.90;;;20.00;63.10;;;;;;5085981;28;46672;-73
2022/10/16 00:13:32;;;;;;;0.93;0.77;;;20.00;63.00;;;;;;5086097;28;45319;-71
2022/10/16 00:16:00;;;;;;;0.75;0.70;;;20.00;63.00;;;;;;5086227;28;45293;-72
2022/10/16 00:18:26;;;;;;;1.02;0.70;;;20.00;63.10;;;;;;5086632;28;45414;-73
2022/10/16 00:20:53;;;;;;;0.60;0.60;;;20.00;63.10;;;;;;5085933;28;46409;-73
2022/10/16 00:23:22;;;;;;;0.60;0.60;;;20.00;63.10;;;;;;5085977;28;45158;-72
2022/10/16 00:25:56;;;;;;;0.80;0.80;;;20.00;63.00;;;;;;5085477;28;45304;-73
2022/10/16 00:28:23;;;;;;;0.70;0.70;;;20.00;63.10;;;;;;5085647;28;45475;-71
2022/10/16 00:30:50;;;;;;;0.60;0.60;;;20.00;63.20;;;;;;5085785;28;45478;-72
2022/10/16 00:33:16;;;;;;;1.42;0.85;;;19.90;63.10;;;;;;5087231;27;45229;-72
2022/10/16 00:35:43;;;;;;;0.80;0.80;;;19.90;64.00;;;;;;5089362;28;45206;-72
2022/10/16 00:38:10;;;;;;;0.80;0.80;;;20.00;63.10;;;;;;5089633;28;45205;-73
2022/10/16 00:40:38;;;;;;;0.60;0.60;;;19.90;63.10;;;;;;5089284;28;46704;-72
2022/10/16 00:43:12;;;;;;;0.77;0.70;;;19.90;63.30;;;;;;5088873;28;45313;-72
2022/10/16 00:45:39;;;;;;;0.65;0.65;;;19.90;63.40;;;;;;5089440;28;45300;-72
2022/10/16 00:48:08;;;;;;;0.70;0.70;;;19.90;63.20;;;;;;5089466;28;45179;-71
2022/10/16 00:50:35;;;;;;;1.00;0.80;;;19.90;63.20;;;;;;5089276;28;47591;-71
2022/10/16 00:53:02;;;;;;;0.60;0.60;;;19.90;63.40;;;;;;5089189;28;45376;-73
2022/10/16 00:55:30;;;;;;;0.70;0.70;;;19.90;63.30;;;;;;5089277;28;45290;-72
2022/10/16 00:57:58;;;;;;;0.82;0.80;;;19.80;63.40;;;;;;5089352;28;45403;-71
2022/10/16 01:00:26;;;;;;;0.70;0.70;;;19.80;63.30;;;;;;5089035;28;45730;-73
2022/10/16 01:02:54;;;;;;;0.80;0.80;;;19.80;63.40;;;;;;5089039;28;45295;-71
2022/10/16 01:05:21;;;;;;;0.70;0.70;;;19.80;63.40;;;;;;5089351;28;45300;-71
2022/10/16 01:07:51;;;;;;;0.68;0.68;;;19.80;63.40;;;;;;5088299;28;45558;-71
2022/10/16 01:10:23;;;;;;;0.85;0.70;;;19.80;63.40;;;;;;5087886;28;46353;-72
2022/10/16 01:12:53;;;;;;;0.50;0.50;;;19.80;63.40;;;;;;5087929;28;45235;-73
2022/10/16 01:15:24;;;;;;;0.93;0.73;;;19.80;63.40;;;;;;5088051;28;45355;-72
2022/10/16 01:17:54;;;;;;;0.75;0.60;;;19.80;64.10;;;;;;5088367;28;45369;-72
2022/10/16 01:20:25;;;;;;;1.33;0.65;;;19.80;63.40;;;;;;5087762;28;46405;-71
2022/10/16 01:23:09;;;;;;;0.70;0.70;;;19.70;63.40;;;;;;5087688;28;45447;-72
2022/10/16 01:26:13;;;;;;;0.70;0.70;;;19.80;63.50;;;;;;5087980;28;45248;-73
2022/10/16 01:28:43;;;;;;;0.70;0.70;;;19.70;63.40;;;;;;5073937;28;45480;-71
2022/10/16 01:31:10;;;;;;;0.70;0.70;;;19.80;63.40;;;;;;5087541;28;45461;-72
2022/10/16 01:33:39;;;;;;;0.70;0.70;;;19.80;63.40;;;;;;5087600;28;45244;-72
2022/10/16 01:36:09;;;;;;;0.68;0.68;;;19.80;63.40;;;;;;5087637;28;45264;-72
2022/10/16 01:38:36;;;;;;;0.60;0.60;;;19.70;63.40;;;;;;5087784;28;45230;-72
2022/10/16 01:41:05;;;;;;;0.60;0.60;;;19.70;63.30;;;;;;5087391;28;46478;-73
2022/10/16 01:43:34;;;;;;;0.73;0.60;;;19.70;63.40;;;;;;5086519;28;45475;-71
2022/10/16 01:46:02;;;;;;;0.70;0.70;;;19.70;64.10;;;;;;5087588;28;45237;-71
2022/10/16 01:48:29;;;;;;;0.85;0.85;;;19.70;63.50;;;;;;5087675;28;45294;-71
2022/10/16 01:50:58;;;;;;;0.85;0.70;;;19.70;63.40;;;;;;5087316;28;46378;-71
2022/10/16 01:53:24;;;;;;;0.75;0.70;;;19.70;63.50;;;;;;5087425;28;45332;-73
2022/10/16 01:55:51;;;;;;;0.68;0.65;;;19.70;63.50;;;;;;5087535;28;45422;-72
2022/10/16 01:58:18;;;;;;;0.60;0.60;;;19.70;64.20;;;;;;5087592;28;45272;-72
2022/10/16 02:00:46;;;;;;;0.60;0.60;;;19.70;63.50;;;;;;5087133;28;46505;-72
2022/10/16 02:03:15;;;;;;;0.60;0.60;;;19.70;63.50;;;;;;5087072;28;45320;-72
2022/10/16 02:05:43;;;;;;;0.73;0.63;;;19.70;63.50;;;;;;5087302;28;45286;-71
2022/10/16 02:08:10;;;;;;;0.60;0.60;;;19.70;63.50;;;;;;5087372;28;45396;-72
2022/10/16 02:10:36;;;;;;;0.60;0.60;;;19.60;63.40;;;;;;5086954;28;46381;-71
2022/10/16 02:13:06;;;;;;;0.70;0.70;;;19.60;63.50;;;;;;5087010;28;45384;-72
2022/10/16 02:15:33;;;;;;;0.80;0.80;;;19.60;63.50;;;;;;5087150;28;45262;-72
2022/10/16 02:18:00;;;;;;;0.60;0.60;;;19.60;63.50;;;;;;5087260;28;45192;-72
2022/10/16 02:20:29;;;;;;;0.60;0.60;;;19.60;64.20;;;;;;5086755;28;46353;-72
2022/10/16 02:22:56;;;;;;;0.60;0.60;;;19.60;63.50;;;;;;5086793;28;45308;-71
2022/10/16 02:25:25;;;;;;;1.42;0.63;;;19.60;63.50;;;;;;5086969;28;45209;-71
2022/10/16 02:27:54;;;;;;;0.73;0.55;;;19.60;63.60;;;;;;5086991;28;45471;-72
2022/10/16 02:30:24;;;;;;;0.60;0.60;;;19.60;64.20;;;;;;5086576;28;47300;-71
2022/10/16 02:32:51;;;;;;;1.00;0.73;;;19.60;63.60;;;;;;5086720;28;45194;-71
2022/10/16 02:35:19;;;;;;;0.70;0.70;;;19.50;63.50;;;;;;5086757;28;45330;-71
2022/10/16 02:37:47;;;;;;;0.75;0.75;;;19.50;63.60;;;;;;5066584;28;45353;-73
2022/10/16 02:40:14;;;;;;;0.52;0.52;;;19.50;63.60;;;;;;5066130;28;46719;-71
2022/10/16 02:42:41;;;;;;;0.70;0.70;;;19.50;63.60;;;;;;5065769;28;45270;-70
2022/10/16 02:45:09;;;;;;;0.70;0.70;;;19.50;63.50;;;;;;5066286;28;45334;-71
2022/10/16 02:47:36;;;;;;;0.60;0.60;;;19.50;63.50;;;;;;5066348;28;45438;-71
2022/10/16 02:50:03;;;;;;;0.70;0.70;;;19.50;63.70;;;;;;5066089;28;45177;-71
2022/10/16 02:52:30;;;;;;;0.45;0.45;;;19.50;63.60;;;;;;5065930;28;45268;-72
2022/10/16 02:54:58;;;;;;;0.70;0.70;;;19.50;63.70;;;;;;5065874;28;45242;-72
2022/10/16 02:57:25;;;;;;;0.60;0.60;;;19.50;63.60;;;;;;5065929;28;45432;-71
2022/10/16 02:59:51;;;;;;;0.60;0.60;;;19.50;63.70;;;;;;5065856;28;46372;-71
2022/10/16 03:02:18;;;;;;;0.70;0.70;;;19.50;64.40;;;;;;5065800;28;45295;-70
2022/10/16 03:04:45;;;;;;;1.02;0.55;;;19.50;63.70;;;;;;5066030;28;45325;-72
2022/10/16 03:07:12;;;;;;;0.98;0.80;;;19.40;63.70;;;;;;5066111;28;45462;-71
2022/10/16 03:09:39;;;;;;;0.60;0.60;;;19.50;63.70;;;;;;5076403;28;45478;-71
2022/10/16 03:12:07;;;;;;;0.60;0.60;;;19.50;63.70;;;;;;5086088;28;45279;-71
2022/10/16 03:14:34;;;;;;;0.70;0.70;;;19.50;63.60;;;;;;5083548;28;45277;-71
2022/10/16 03:17:01;;;;;;;1.85;0.80;;;19.40;63.70;;;;;;5086375;28;45273;-72
2022/10/16 03:19:28;;;;;;;0.47;0.47;;;19.50;64.40;;;;;;5085862;28;46342;-71
2022/10/16 03:21:55;;;;;;;0.40;0.40;;;19.50;63.80;;;;;;5085905;28;45284;-72
2022/10/16 03:24:21;;;;;;;1.35;0.60;;;19.40;63.70;;;;;;5086048;28;45337;-72
2022/10/16 03:26:48;;;;;;;0.57;0.57;;;19.40;64.50;;;;;;5086186;28;45253;-72
2022/10/16 03:29:16;;;;;;;0.73;0.73;;;19.40;63.70;;;;;;5085697;28;46536;-71
2022/10/16 03:31:43;;;;;;;0.50;0.50;;;19.50;63.70;;;;;;5085773;28;45276;-71
2022/10/16 03:34:10;;;;;;;0.70;0.70;;;19.40;63.60;;;;;;5085849;28;45308;-70
2022/10/16 03:36:37;;;;;;;0.60;0.60;;;19.40;63.70;;;;;;5085948;28;45257;-71
2022/10/16 03:39:04;;;;;;;0.63;0.63;;;19.40;63.80;;;;;;5085485;28;46955;-71
2022/10/16 03:41:31;;;;;;;0.70;0.70;;;19.40;63.70;;;;;;5085616;28;45186;-71
2022/10/16 03:43:58;;;;;;;2.38;1.25;;;19.40;63.70;;;;;;5085503;28;45311;-71
2022/10/16 03:46:26;;;;;;;0.60;0.60;;;19.40;63.80;;;;;;5085836;28;45329;-70
2022/10/16 03:48:53;;;;;;;0.50;0.50;;;19.40;63.80;;;;;;5085524;28;46502;-71
2022/10/16 03:51:20;;;;;;;0.60;0.60;;;19.40;64.50;;;;;;5085470;28;45222;-70
2022/10/16 03:53:47;;;;;;;0.63;0.52;;;19.40;64.50;;;;;;5085684;28;45348;-71
2022/10/16 03:56:14;;;;;;;0.70;0.70;;;19.40;63.80;;;;;;5085667;28;45443;-70
2022/10/16 03:58:41;;;;;;;0.70;0.70;;;19.40;64.50;;;;;;5085348;28;47021;-71
2022/10/16 04:01:08;;;;;;;0.80;0.80;;;19.40;63.80;;;;;;5085508;28;45242;-71
2022/10/16 04:03:36;;;;;;;0.40;0.40;;;19.40;63.70;;;;;;5085462;28;45232;-71
2022/10/16 04:06:03;;;;;;;0.60;0.60;;;19.40;63.80;;;;;;5085645;28;45272;-70
2022/10/16 04:08:30;;;;;;;0.63;0.63;;;19.40;63.80;;;;;;5088260;27;46566;-71
2022/10/16 04:10:56;;;;;;;0.60;0.60;;;19.40;63.80;;;;;;5088909;28;45244;-71
2022/10/16 04:13:23;;;;;;;0.52;0.52;;;19.40;63.90;;;;;;5089058;28;45262;-71
2022/10/16 04:15:50;;;;;;;1.10;0.70;;;19.40;63.80;;;;;;5089272;28;45283;-71
2022/10/16 04:18:17;;;;;;;0.90;0.75;;;19.40;64.50;;;;;;5088703;28;45476;-71
2022/10/16 04:20:45;;;;;;;0.70;0.70;;;19.40;63.80;;;;;;5088721;28;45331;-70
2022/10/16 04:23:12;;;;;;;0.55;0.55;;;19.40;64.60;;;;;;5088843;28;45348;-71
2022/10/16 04:25:39;;;;;;;0.70;0.70;;;19.40;63.90;;;;;;5089044;28;45329;-72
2022/10/16 04:28:06;;;;;;;0.75;0.50;;;19.40;63.70;;;;;;5088554;28;45536;-71
2022/10/16 04:30:33;;;;;;;0.70;0.70;;;19.40;63.70;;;;;;5088585;28;45370;-72
2022/10/16 04:33:00;;;;;;;0.60;0.60;;;19.40;63.80;;;;;;5088816;28;45237;-71
2022/10/16 04:35:27;;;;;;;0.52;0.52;;;19.40;63.80;;;;;;5088787;28;45287;-73
2022/10/16 04:37:57;;;;;;;0.52;0.52;;;19.30;63.80;;;;;;5088419;28;47678;-70
2022/10/16 04:40:24;;;;;;;0.60;0.60;;;19.40;63.80;;;;;;5088537;28;45308;-71
2022/10/16 04:42:51;;;;;;;0.70;0.70;;;19.30;63.80;;;;;;5088311;28;45287;-71
2022/10/16 04:45:18;;;;;;;0.70;0.60;;;19.30;63.70;;;;;;5088811;28;45203;-71
2022/10/16 04:47:45;;;;;;;0.68;0.68;;;19.40;63.80;;;;;;5088274;28;46695;-71
2022/10/16 04:50:12;;;;;;;0.52;0.50;;;19.40;63.70;;;;;;5088465;28;45257;-71
2022/10/16 04:52:38;;;;;;;1.20;0.50;;;19.40;63.70;;;;;;5088476;28;45483;-70
2022/10/16 04:55:08;;;;;;;0.90;0.50;;;19.40;63.60;;;;;;5088501;28;45291;-70
2022/10/16 04:57:34;;;;;;;0.65;0.60;;;19.40;64.40;;;;;;5088124;28;46502;-71
2022/10/16 05:00:02;;;;;;;0.50;0.50;;;19.40;63.80;;;;;;5088368;28;45249;-71
2022/10/16 05:02:29;;;;;;;0.60;0.60;;;19.40;63.70;;;;;;5088308;28;45433;-71
2022/10/16 05:04:56;;;;;;;0.60;0.60;;;19.30;63.70;;;;;;5088313;28;45395;-70
2022/10/16 05:07:24;;;;;;;0.75;0.55;;;19.40;63.70;;;;;;5088038;28;46678;-70
2022/10/16 05:09:51;;;;;;;0.70;0.70;;;19.40;63.70;;;;;;5088053;28;45235;-71
2022/10/16 05:12:19;;;;;;;0.63;0.63;;;19.30;63.70;;;;;;5088076;28;45259;-70
2022/10/16 05:14:46;;;;;;;0.60;0.60;;;19.30;63.70;;;;;;5088263;28;45404;-71
2022/10/16 05:17:12;;;;;;;0.68;0.68;;;19.30;63.70;;;;;;5087878;28;47303;-70
2022/10/16 05:19:39;;;;;;;0.55;0.55;;;19.30;63.70;;;;;;5087106;27;45278;-70
2022/10/16 05:22:06;;;;;;;0.70;0.70;;;19.40;63.70;;;;;;5087990;28;45225;-71
2022/10/16 05:24:33;;;;;;;0.60;0.60;;;19.40;63.60;;;;;;5087998;28;45502;-70
2022/10/16 05:27:00;;;;;;;0.55;0.55;;;19.40;64.30;;;;;;5087633;28;46628;-71
2022/10/16 05:29:28;;;;;;;1.45;0.60;;;19.30;63.60;;;;;;5087943;28;45329;-70
2022/10/16 05:31:55;;;;;;;0.50;0.50;;;19.30;63.70;;;;;;5087727;28;45272;-70
2022/10/16 05:34:22;;;;;;;0.65;0.60;;;19.30;63.60;;;;;;5087914;28;45396;-70
2022/10/16 05:36:48;;;;;;;0.73;0.73;;;19.40;63.70;;;;;;5087527;28;45766;-71
2022/10/16 05:39:15;;;;;;;0.60;0.60;;;19.40;63.60;;;;;;5087684;28;45250;-71
2022/10/16 05:41:42;;;;;;;0.70;0.70;;;19.40;63.60;;;;;;5087608;28;45384;-71
2022/10/16 05:44:09;;;;;;;0.40;0.40;;;19.40;63.60;;;;;;5087547;28;45482;-70
2022/10/16 05:46:38;;;;;;;0.52;0.52;;;19.40;63.70;;;;;;5087272;28;46403;-71
2022/10/16 05:49:05;;;;;;;0.70;0.70;;;19.40;63.60;;;;;;5087388;28;45341;-71
2022/10/16 05:51:31;;;;;;;0.65;0.65;;;19.30;63.50;;;;;;5087786;28;45309;-71
2022/10/16 05:53:58;;;;;;;0.40;0.40;;;19.30;63.60;;;;;;5087591;28;45404;-71
2022/10/16 05:56:25;;;;;;;0.70;0.70;;;19.30;63.60;;;;;;5087244;28;45659;-71
2022/10/16 05:58:52;;;;;;;0.65;0.60;;;19.30;63.60;;;;;;5087210;28;45253;-71
2022/10/16 06:01:20;;;;;;;0.50;0.50;;;19.30;63.70;;;;;;5087405;28;45348;-72
2022/10/16 06:03:48;;;;;;;0.60;0.60;;;19.30;63.60;;;;;;5087342;28;45388;-72
2022/10/16 06:06:16;;;;;;;0.50;0.50;;;19.30;63.60;;;;;;5087072;28;46400;-71
2022/10/16 06:08:43;;;;;;;0.85;0.60;;;19.30;63.60;;;;;;5086907;28;45287;-71
2022/10/16 06:11:11;;;;;;;0.50;0.50;;;19.40;63.50;;;;;;5087198;28;45150;-72
2022/10/16 06:13:38;;;;;;;0.50;0.50;;;19.40;63.50;;;;;;5087298;28;45325;-72
2022/10/16 06:16:06;;;;;;;0.63;0.63;;;19.40;64.20;;;;;;5086845;28;46719;-72
2022/10/16 06:18:33;;;;;;;0.70;0.70;;;19.40;63.40;;;;;;5087059;28;45181;-71
2022/10/16 06:21:05;;;;;;;0.57;0.50;;;19.40;63.40;;;;;;5087085;28;45372;-71
2022/10/16 06:23:32;;;;;;;0.85;0.60;;;19.40;63.40;;;;;;5086972;28;45241;-71
2022/10/16 06:26:05;;;;;;;0.73;0.60;;;19.40;64.20;;;;;;5086793;28;45559;-71
2022/10/16 06:28:32;;;;;;;0.60;0.60;;;19.40;63.50;;;;;;5086685;28;45258;-71
2022/10/16 06:31:00;;;;;;;0.60;0.60;;;19.40;63.40;;;;;;5085512;27;45324;-72
2022/10/16 06:33:27;;;;;;;0.88;0.60;;;19.30;63.40;;;;;;5087009;28;45231;-71
2022/10/16 06:35:54;;;;;;;0.60;0.60;;;19.40;63.40;;;;;;5086746;28;45302;-71
2022/10/16 06:38:22;;;;;;;0.60;0.60;;;19.40;64.20;;;;;;5086697;28;45180;-71
2022/10/16 06:40:49;;;;;;;0.60;0.60;;;19.40;63.40;;;;;;5086941;28;45438;-71
2022/10/16 06:43:16;;;;;;;0.60;0.60;;;19.40;63.40;;;;;;5086603;28;45365;-71
2022/10/16 06:45:42;;;;;;;0.55;0.55;;;19.40;63.40;;;;;;5086441;28;46388;-72
2022/10/16 06:48:09;;;;;;;0.77;0.77;;;19.40;63.40;;;;;;5086444;28;45273;-71
2022/10/16 06:50:36;;;;;;;0.60;0.60;;;19.40;63.40;;;;;;5086544;28;45211;-71
2022/10/16 06:53:03;;;;;;;0.52;0.52;;;19.40;63.40;;;;;;5086979;28;45225;-72
2022/10/16 06:55:31;;;;;;;0.40;0.40;;;19.40;63.40;;;;;;5086163;28;46676;-72
2022/10/16 06:57:58;;;;;;;0.50;0.50;;;19.40;63.40;;;;;;5086314;28;45283;-71
2022/10/16 07:00:25;;;;;;;0.68;0.68;;;19.40;63.40;;;;;;5086332;28;45212;-71
2022/10/16 07:02:52;;;;;;;0.70;0.70;;;19.40;63.40;;;;;;5086592;28;45312;-72
2022/10/16 07:05:19;;;;;;;0.52;0.52;;;19.40;63.40;;;;;;5085986;28;45257;-71
2022/10/16 07:07:45;;;;;;;0.60;0.60;;;19.40;64.10;;;;;;5086287;28;45304;-71
2022/10/16 07:10:12;;;;;;;0.63;0.60;;;19.40;63.40;;;;;;5086300;28;45359;-71
2022/10/16 07:12:41;;;;;;;1.77;0.68;;;19.40;63.40;;;;;;5086541;28;45237;-70
2022/10/16 07:15:09;;;;;;;0.70;0.70;;;19.40;63.40;;;;;;5085987;28;46674;-70
2022/10/16 07:17:36;;;;;;;0.60;0.60;;;19.40;63.40;;;;;;5086078;28;45328;-70
2022/10/16 07:20:03;;;;;;;0.73;0.73;;;19.40;63.40;;;;;;5086259;28;45284;-71
2022/10/16 07:22:30;;;;;;;1.00;0.70;;;19.40;63.40;;;;;;5086363;28;45195;-71
2022/10/16 07:24:56;;;;;;;2.22;0.60;;;19.40;63.40;;;;;;5085797;28;46984;-70
2022/10/16 07:27:24;;;;;;;2.13;0.60;;;19.40;63.40;;;;;;5086011;28;45297;-71
2022/10/16 07:29:52;;;;;;;0.60;0.60;;;19.40;63.40;;;;;;5086066;28;45393;-71
2022/10/16 07:32:19;;;;;;;0.60;0.60;;;19.40;63.40;;;;;;5086229;28;45400;-71
2022/10/16 07:34:46;;;;;;;0.68;0.68;;;19.40;63.40;;;;;;5085743;28;46635;-71
2022/10/16 07:37:13;;;;;;;0.80;0.80;;;19.40;63.40;;;;;;5085842;28;45240;-71
2022/10/16 07:39:40;;;;;;;0.52;0.52;;;19.40;63.40;;;;;;5085982;28;45307;-71
2022/10/16 07:42:07;;;;;;;0.63;0.63;;;19.40;63.40;;;;;;5085410;28;45462;-71
2022/10/16 07:44:34;;;;;;;1.50;0.80;;;19.40;63.40;;;;;;5085530;28;46971;-70
2022/10/16 07:47:02;;;;;;;0.60;0.60;;;19.40;63.40;;;;;;5085623;28;45261;-70
2022/10/16 07:49:29;;;;;;;0.70;0.70;;;19.40;63.40;;;;;;5085802;28;45261;-71
2022/10/16 07:51:56;;;;;;;1.08;0.82;;;19.40;63.40;;;;;;5085895;28;45234;-70
2022/10/16 07:54:23;;;;;;;0.68;0.60;;;19.40;63.40;;;;;;5085565;28;46409;-71
2022/10/16 07:56:50;;;;;;;0.75;0.73;;;19.40;63.40;;;;;;5085672;28;45241;-71
2022/10/16 07:59:16;;;;;;;1.08;0.52;;;19.40;63.40;;;;;;5085735;28;45192;-70
2022/10/16 08:01:43;;;;;;;0.52;0.52;;;19.40;63.40;;;;;;5085807;28;45258;-71
2022/10/16 08:04:12;;;;;;;0.60;0.60;;;19.40;63.40;;;;;;5085208;28;46396;-72
2022/10/16 08:06:39;;;;;;;0.60;0.60;;;19.40;63.40;;;;;;5085339;28;45297;-72
2022/10/16 08:09:09;;;;;;;0.55;0.55;;;19.40;63.40;;;;;;5085519;28;45252;-71
2022/10/16 08:11:36;;;;;;;1.48;0.80;;;19.40;63.40;;;;;;5085637;28;45306;-71
2022/10/16 08:14:02;;;;;;;0.75;0.68;;;19.50;63.30;;;;;;5085271;28;45390;-72
2022/10/16 08:16:30;;;;;;;0.90;0.75;;;19.50;64.10;;;;;;5085298;28;45337;-71
2022/10/16 08:18:56;;;;;;;0.60;0.60;;;19.50;63.30;;;;;;5085351;28;45259;-71
2022/10/16 08:21:25;;;;;;;1.58;0.70;;;19.50;63.30;;;;;;5085686;28;45448;-71
2022/10/16 08:23:52;;;;;;;0.60;0.60;;;19.50;63.30;;;;;;5084941;28;46966;-71
2022/10/16 08:26:19;;;;;;;0.50;0.50;;;19.50;63.20;;;;;;5085265;28;45299;-71
2022/10/16 08:28:46;;;;;;;0.52;0.52;;;19.50;63.20;;;;;;5085183;28;45252;-71
2022/10/16 08:31:13;;;;;;;1.55;0.65;;;19.50;63.20;;;;;;5085331;28;45183;-72
2022/10/16 08:33:41;;;;;;;0.77;0.68;;;19.50;63.20;;;;;;5084996;28;45292;-71
2022/10/16 08:36:08;;;;;;;1.85;0.80;;;19.50;63.30;;;;;;5084791;28;45315;-71
2022/10/16 08:38:36;;;;;;;0.70;0.70;;;19.50;63.30;;;;;;5085237;28;45291;-72
2022/10/16 08:41:16;;;;;;;0.60;0.60;;;19.60;64.10;;;;;;5085261;28;45466;-71
2022/10/16 08:43:51;;;;;;;1.05;0.63;;;19.60;63.30;;;;;;5084409;28;45269;-71
2022/10/16 08:46:25;;;;;;;1.75;0.60;;;19.50;63.20;;;;;;5084851;28;45348;-72
2022/10/16 08:48:53;;;;;;;0.50;0.50;;;19.60;63.20;;;;;;5085038;28;45381;-71
2022/10/16 08:51:21;;;;;;;0.82;0.60;;;19.60;63.20;;;;;;5085419;28;45389;-71
2022/10/16 08:53:54;;;;;;;0.70;0.70;;;19.60;63.20;;;;;;5085076;27;45325;-72
2022/10/16 08:56:20;;;;;;;0.90;0.90;;;19.60;63.20;;;;;;5088307;28;45273;-72
2022/10/16 08:58:47;;;;;;;0.70;0.70;;;19.60;63.10;;;;;;5088419;28;45273;-72
2022/10/16 09:01:15;;;;;;;0.75;0.75;;;19.60;63.20;;;;;;5088527;28;45242;-71
2022/10/16 09:03:51;;;;;;;0.70;0.70;;;19.70;63.20;;;;;;5088135;28;46734;-72
2022/10/16 09:06:37;;;;;;;0.85;0.80;;;19.70;63.00;;;;;;5088178;28;45376;-71
2022/10/16 09:09:16;;;;;;;0.60;0.60;;;19.70;63.00;;;;;;5086126;28;45399;-72
2022/10/16 09:11:47;;;;;;;0.57;0.57;;;19.70;62.80;;;;;;5086681;27;45328;-72
2022/10/16 09:14:25;;;;;;;0.93;0.68;;;19.70;62.90;;;;;;5088169;28;47304;-73
2022/10/16 09:16:53;;;;;;;0.77;0.77;;;19.80;62.80;;;;;;5087889;28;45293;-72
2022/10/16 09:19:24;;;;;;;0.60;0.60;;;19.80;62.60;;;;;;5088195;27;45577;-72
2022/10/16 09:21:52;;;;;;;0.75;0.75;;;19.80;62.60;;;;;;5083838;27;45400;-72
2022/10/16 09:24:22;;;;;;;0.60;0.60;;;19.80;62.70;;;;;;5086109;28;47650;-72
2022/10/16 09:26:49;;;;;;;1.77;0.77;;;19.80;62.80;;;;;;5078036;28;45403;-72
2022/10/16 09:29:16;;;;;;;0.60;0.60;;;19.90;62.70;;;;;;5087803;28;45456;-73
2022/10/16 09:31:42;;;;;;;0.57;0.57;;;19.90;63.40;;;;;;5087771;28;45446;-72
2022/10/16 09:34:22;;;;;;;1.48;0.70;;;19.90;62.50;;;;;;5087636;27;46510;-71
2022/10/16 09:36:49;;;;;;;0.85;0.60;;;20.00;62.50;;;;;;5086578;27;45492;-72
2022/10/16 09:39:16;;;;;;;0.55;0.55;;;20.00;62.30;;;;;;5087356;28;45270;-71
2022/10/16 09:41:45;;;;;;;1.52;0.80;;;20.10;62.30;;;;;;5087563;28;45299;-70
2022/10/16 09:44:20;;;;;;;0.77;0.77;;;20.10;62.30;;;;;;5086804;28;47295;-71
2022/10/16 09:46:47;;;;;;;0.85;0.80;;;20.10;62.10;;;;;;5087051;28;45427;-71
2022/10/16 09:49:21;;;;;;;0.70;0.70;;;20.20;62.10;;;;;;5084516;28;45303;-71
2022/10/16 09:51:48;;;;;;;1.00;0.65;;;20.20;62.10;;;;;;5079049;28;45361;-70
2022/10/16 09:54:16;;;;;;;0.60;0.60;;;20.30;62.10;;;;;;5081751;28;46477;-71
2022/10/16 09:56:45;;;;;;;0.98;0.88;;;20.30;61.80;;;;;;5087329;28;45190;-72
2022/10/16 09:59:14;;;;;;;2.35;0.57;;;20.30;61.60;;;;;;5087509;28;45281;-70
2022/10/16 10:01:42;;;;;;;1.27;0.90;;;20.30;61.70;;;;;;5087680;28;45336;-71
2022/10/16 10:04:09;;;;;;;0.90;0.90;;;20.40;62.00;;;;;;5087114;28;47010;-71
2022/10/16 10:06:37;;;;;;;0.70;0.70;;;20.40;62.10;;;;;;5086857;28;45478;-72
2022/10/16 10:09:15;;;;;;;0.73;0.73;;;20.40;62.10;;;;;;5087347;28;45295;-72
2022/10/16 10:11:49;;;;;;;1.42;0.80;;;20.40;62.20;;;;;;5084752;28;45424;-72
2022/10/16 10:14:29;;;;;;;1.33;1.10;;;20.50;62.20;;;;;;5073659;28;45482;-71
2022/10/16 10:17:17;;;;;;;0.93;0.80;;;20.50;62.80;;;;;;5077888;28;45691;-72
2022/10/16 10:19:50;;;;;;;1.20;0.70;;;20.50;62.10;;;;;;5066890;28;45438;-73
2022/10/16 10:22:23;;;;;;;0.68;0.68;;;20.50;61.80;;;;;;5083707;28;45371;-71
2022/10/16 10:25:16;;;;;;;0.60;0.60;;;20.60;62.00;;;;;;5066336;28;45266;-72
2022/10/16 10:28:05;;;;;;;1.05;0.90;;;20.60;61.90;;;;;;5085701;28;45216;-72
2022/10/16 10:30:37;;;;;;;0.80;0.80;;;20.60;61.90;;;;;;5068032;28;45373;-70
2022/10/16 10:33:18;;;;;;;0.80;0.80;;;20.60;62.00;;;;;;5087034;28;45400;-71
2022/10/16 10:35:49;;;;;;;1.77;0.80;;;20.70;62.10;;;;;;5086487;27;45438;-70
2022/10/16 10:38:27;;;;;;;1.85;0.82;;;20.70;62.30;;;;;;5081261;28;45410;-71
2022/10/16 10:40:56;;;;;;;3.17;0.60;;;20.70;62.40;;;;;;5086694;28;45339;-71
2022/10/16 10:43:31;;;;;;;0.80;0.55;;;20.80;62.20;;;;;;5084397;27;45408;-71
2022/10/16 10:46:00;;;;;;;1.30;1.00;;;20.80;61.90;;;;;;5084456;28;46472;-71
2022/10/16 10:48:43;;;;;;;1.15;0.70;;;20.80;61.70;;;;;;5086184;28;45228;-70
2022/10/16 10:51:12;;;;;;;0.95;0.82;;;20.90;61.80;;;;;;5085481;28;45353;-69
2022/10/16 10:53:43;;;;;;;3.67;0.80;;;20.90;62.70;;;;;;5083837;28;45272;-70
2022/10/16 10:56:23;;;;;;;3.47;1.00;;;21.00;63.50;;;;;;5084193;28;45623;-68
2022/10/16 10:59:03;;;;;;;4.22;0.90;;;21.10;63.80;;;;;;5085962;27;45300;-71
2022/10/16 11:01:34;;;;;;;2.83;0.95;;;21.30;62.40;;;;;;5086645;27;45251;-70
2022/10/16 11:04:20;;;;;;;5.72;0.88;;;21.30;61.70;;;;;;5086648;27;45426;-67
2022/10/16 11:06:47;;;;;;;2.53;0.95;;;21.40;61.30;;;;;;5086258;27;45407;-68
2022/10/16 11:09:17;;;;;;;2.83;0.80;;;21.50;61.50;;;;;;5086293;28;45254;-68
2022/10/16 11:11:45;;;;;;;2.60;0.90;;;21.50;61.40;;;;;;5086368;28;45305;-69
2022/10/16 11:14:16;;;;;;;2.50;0.90;;;21.60;60.80;;;;;;5086446;28;45343;-68
2022/10/16 11:16:44;;;;;;;1.67;0.82;;;21.60;60.10;;;;;;5085375;28;45534;-66
2022/10/16 11:19:13;;;;;;;0.95;0.77;;;21.70;60.20;;;;;;5086083;28;45248;-71
2022/10/16 11:21:43;;;;;;;7.35;1.67;;;21.70;60.60;;;;;;5086234;28;45240;-70
2022/10/16 11:24:13;;;;;;;4.55;1.13;;;21.80;60.10;;;;;;5086338;28;45293;-70
2022/10/16 11:26:41;;;;;;;4.72;1.05;;;21.80;59.80;;;;;;5085908;28;46285;-70
2022/10/16 11:29:11;;;;;;;3.92;1.08;;;21.80;60.00;;;;;;5085897;28;45247;-70
2022/10/16 11:31:41;;;;;;;3.30;1.00;;;21.80;60.00;;;;;;5086078;28;45194;-69
2022/10/16 11:34:11;;;;;;;1.58;1.00;;;21.80;60.10;;;;;;5088535;27;46610;-69
2022/10/16 11:36:40;;;;;;;4.20;1.27;;;21.90;60.10;;;;;;5094506;27;45463;-69
2022/10/16 11:39:12;;;;;;;6.50;1.60;;;21.90;60.30;;;;;;5093733;27;45218;-70
2022/10/16 11:41:43;;;;;;;9.13;1.35;;;21.90;60.50;;;;;;5085894;28;45309;-73
2022/10/16 11:44:27;;;;;;;5.97;1.60;;;22.00;60.10;;;;;;5085776;28;45577;-73
2022/10/16 11:47:01;;;;;;;6.25;1.52;;;22.10;60.00;;;;;;5087856;27;46641;-72
2022/10/16 11:49:28;;;;;;;1.60;1.00;;;22.20;59.50;;;;;;5101933;27;45338;-71
2022/10/16 11:51:57;;;;;;;2.92;0.90;;;22.30;59.30;;;;;;5106206;27;45284;-71
2022/10/16 11:54:27;;;;;;;2.33;1.10;;;22.40;58.60;;;;;;5106555;27;45261;-71
2022/10/16 11:56:55;;;;;;;2.50;1.30;;;22.60;58.30;;;;;;5105771;27;46395;-70
2022/10/16 11:59:25;;;;;;;3.65;1.20;;;22.60;58.00;;;;;;5082331;27;45447;-71
2022/10/16 12:01:53;;;;;;;1.67;1.20;;;22.70;58.10;;;;;;5085468;28;45209;-71
2022/10/16 12:04:23;;;;;;;3.75;1.15;;;22.80;57.90;;;;;;5085664;28;45360;-69
2022/10/16 12:06:51;;;;;;;2.45;1.20;;;22.90;57.80;;;;;;5085078;28;45234;-69
2022/10/16 12:09:22;;;;;;;4.18;1.60;;;22.90;57.80;;;;;;5085072;28;45307;-69
2022/10/16 12:11:48;;;;;;;2.42;1.10;;;22.90;57.90;;;;;;5085327;28;45274;-70
2022/10/16 12:14:39;;;;;;;2.83;1.35;;;22.90;57.90;;;;;;5085571;28;45450;-70
2022/10/16 12:17:24;;;;;;;2.47;1.13;;;22.90;58.00;;;;;;5080353;28;46979;-70
2022/10/16 12:20:00;;;;;;;2.42;1.08;;;22.90;58.00;;;;;;5085216;28;45303;-68
2022/10/16 12:22:28;;;;;;;2.78;1.23;;;22.90;58.00;;;;;;5084861;28;45454;-69
2022/10/16 12:24:55;;;;;;;1.00;0.90;;;23.00;58.60;;;;;;5084669;28;45570;-70
2022/10/16 12:27:25;;;;;;;2.13;1.00;;;23.00;59.00;;;;;;5085012;28;45506;-71
2022/10/16 12:29:55;;;;;;;2.72;1.00;;;23.00;59.20;;;;;;5088592;28;45325;-68
2022/10/16 12:32:26;;;;;;;4.32;1.15;;;23.10;59.20;;;;;;5088180;28;45303;-70
2022/10/16 12:34:53;;;;;;;2.50;0.90;;;23.10;59.10;;;;;;5088581;28;45185;-69
2022/10/16 12:37:23;;;;;;;2.33;0.80;;;23.10;59.80;;;;;;5071150;28;45530;-68
2022/10/16 12:39:50;;;;;;;4.07;1.15;;;23.20;59.00;;;;;;5068233;28;45369;-69
2022/10/16 12:42:23;;;;;;;2.83;1.08;;;23.20;58.90;;;;;;5065755;28;45364;-69
2022/10/16 12:44:50;;;;;;;1.10;1.00;;;23.30;58.80;;;;;;5068547;28;45284;-71
2022/10/16 12:47:24;;;;;;;10.43;1.40;;;23.30;58.80;;;;;;5073537;28;45532;-71
2022/10/16 12:49:51;;;;;;;8.45;1.52;;;23.30;58.60;;;;;;5088451;28;45309;-68
2022/10/16 12:52:27;;;;;;;7.40;1.38;;;23.40;58.50;;;;;;5088414;28;45192;-70
2022/10/16 12:54:58;;;;;;;5.65;1.30;;;23.40;58.50;;;;;;5088553;28;45191;-69
2022/10/16 12:57:32;;;;;;;8.70;1.77;;;23.40;58.60;;;;;;5088024;28;45499;-69